sensor_id;sensor_type;location;lat;lon;timestamp;temperature;humidity
55329;DHT22;41205;44.264;19.884;2024-01-27T00:05:53;205.10;2252.80
55329;DHT22;41205;44.264;19.884;2024-01-27T00:08:19;205.10;2252.80
55329;DHT22;41205;44.264;19.884;2024-01-27T00:10:45;205.10;2252.80
55329;DHT22;41205;44.264;19.884;2024-01-27T00:15:46;204.90;2252.80
55329;DHT22;41205;44.264;19.884;2024-01-27T00:18:29;204.90;2252.80
55329;DHT22;41205;44.264;19.884;2024-01-27T00:23:20;204.90;2252.80
55329;DHT22;41205;44.264;19.884;2024-01-27T00:25:46;204.80;2252.80
55329;DHT22;41205;44.264;19.884;2024-01-27T00:28:12;180.00;2252.80
55329;DHT22;41205;44.264;19.884;2024-01-27T00:30:38;205.40;2252.80
55329;DHT22;41205;44.264;19.884;2024-01-27T00:35:29;154.30;2252.80
55329;DHT22;41205;44.264;19.884;2024-01-27T00:40:20;180.10;2252.80
55329;DHT22;41205;44.264;19.884;2024-01-27T00:42:46;204.90;2252.80
55329;DHT22;41205;44.264;19.884;2024-01-27T00:45:11;205.00;2252.80
55329;DHT22;41205;44.264;19.884;2024-01-27T00:47:37;205.00;2252.80
55329;DHT22;41205;44.264;19.884;2024-01-27T00:52:33;205.40;2252.80
55329;DHT22;41205;44.264;19.884;2024-01-27T00:54:58;205.60;2252.80
55329;DHT22;41205;44.264;19.884;2024-01-27T00:57:24;205.70;2252.80
55329;DHT22;41205;44.264;19.884;2024-01-27T01:06:35;230.50;2252.80
55329;DHT22;41205;44.264;19.884;2024-01-27T01:09:04;230.60;2252.80
55329;DHT22;41205;44.264;19.884;2024-01-27T01:14:11;230.80;2252.80
55329;DHT22;41205;44.264;19.884;2024-01-27T01:16:37;230.70;2252.80
55329;DHT22;41205;44.264;19.884;2024-01-27T01:19:03;230.60;2252.80
55329;DHT22;41205;44.264;19.884;2024-01-27T01:21:29;230.50;2252.80
55329;DHT22;41205;44.264;19.884;2024-01-27T01:24:03;205.60;2252.80
55329;DHT22;41205;44.264;19.884;2024-01-27T01:26:29;205.20;2252.80
55329;DHT22;41205;44.264;19.884;2024-01-27T01:28:54;205.40;2252.80
55329;DHT22;41205;44.264;19.884;2024-01-27T01:31:21;205.60;2252.80
55329;DHT22;41205;44.264;19.884;2024-01-27T01:33:47;205.70;2252.80
55329;DHT22;41205;44.264;19.884;2024-01-27T01:36:13;230.40;2252.80
55329;DHT22;41205;44.264;19.884;2024-01-27T01:38:38;230.50;2252.80
55329;DHT22;41205;44.264;19.884;2024-01-27T01:43:39;230.70;2252.80
55329;DHT22;41205;44.264;19.884;2024-01-27T01:46:05;230.60;2252.80
55329;DHT22;41205;44.264;19.884;2024-01-27T01:48:31;230.70;2252.80
55329;DHT22;41205;44.264;19.884;2024-01-27T01:53:22;230.90;2252.80
55329;DHT22;41205;44.264;19.884;2024-01-27T01:55:48;231.00;2252.80
55329;DHT22;41205;44.264;19.884;2024-01-27T02:00:46;230.90;2252.80
55329;DHT22;41205;44.264;19.884;2024-01-27T02:03:12;230.50;2252.80
55329;DHT22;41205;44.264;19.884;2024-01-27T02:05:38;230.60;2252.80
55329;DHT22;41205;44.264;19.884;2024-01-27T02:08:05;230.60;2252.80
55329;DHT22;41205;44.264;19.884;2024-01-27T02:10:30;230.60;2252.80
55329;DHT22;41205;44.264;19.884;2024-01-27T02:13:18;230.60;2252.80
55329;DHT22;41205;44.264;19.884;2024-01-27T02:15:44;230.60;2252.80
55329;DHT22;41205;44.264;19.884;2024-01-27T02:18:10;230.80;2252.80
55329;DHT22;41205;44.264;19.884;2024-01-27T02:20:36;230.70;2252.80
55329;DHT22;41205;44.264;19.884;2024-01-27T02:23:04;230.80;2252.80
55329;DHT22;41205;44.264;19.884;2024-01-27T02:25:34;230.90;2252.80
55329;DHT22;41205;44.264;19.884;2024-01-27T02:30:47;231.00;2252.80
55329;DHT22;41205;44.264;19.884;2024-01-27T02:33:12;231.10;2252.80
55329;DHT22;41205;44.264;19.884;2024-01-27T02:35:38;231.10;2252.80
55329;DHT22;41205;44.264;19.884;2024-01-27T02:38:04;231.10;2252.80
55329;DHT22;41205;44.264;19.884;2024-01-27T02:40:30;231.10;2252.80
55329;DHT22;41205;44.264;19.884;2024-01-27T02:42:56;231.10;2252.80
55329;DHT22;41205;44.264;19.884;2024-01-27T02:45:21;231.10;2252.80
55329;DHT22;41205;44.264;19.884;2024-01-27T02:47:47;231.20;2252.80
55329;DHT22;41205;44.264;19.884;2024-01-27T02:50:13;230.70;2252.80
55329;DHT22;41205;44.264;19.884;2024-01-27T02:52:39;230.60;2252.80
55329;DHT22;41205;44.264;19.884;2024-01-27T02:55:05;230.40;2252.80
55329;DHT22;41205;44.264;19.884;2024-01-27T02:57:31;230.40;2252.80
55329;DHT22;41205;44.264;19.884;2024-01-27T02:59:57;205.70;2252.80
55329;DHT22;41205;44.264;19.884;2024-01-27T03:02:23;205.70;2252.80
55329;DHT22;41205;44.264;19.884;2024-01-27T03:04:49;205.70;2252.80
55329;DHT22;41205;44.264;19.884;2024-01-27T03:07:14;205.70;2252.80
55329;DHT22;41205;44.264;19.884;2024-01-27T03:09:40;205.70;2252.80
55329;DHT22;41205;44.264;19.884;2024-01-27T03:12:06;205.70;2252.80
55329;DHT22;41205;44.264;19.884;2024-01-27T03:14:55;205.60;2252.80
55329;DHT22;41205;44.264;19.884;2024-01-27T03:17:21;205.60;2252.80
55329;DHT22;41205;44.264;19.884;2024-01-27T03:19:51;205.60;2252.80
55329;DHT22;41205;44.264;19.884;2024-01-27T03:22:25;205.60;2252.80
55329;DHT22;41205;44.264;19.884;2024-01-27T03:24:50;205.60;2252.80
55329;DHT22;41205;44.264;19.884;2024-01-27T03:27:18;205.50;2252.80
55329;DHT22;41205;44.264;19.884;2024-01-27T03:30:03;205.50;2252.80
55329;DHT22;41205;44.264;19.884;2024-01-27T03:32:30;205.50;2252.80
55329;DHT22;41205;44.264;19.884;2024-01-27T03:35:02;205.40;2252.80
55329;DHT22;41205;44.264;19.884;2024-01-27T03:37:28;205.40;2252.80
55329;DHT22;41205;44.264;19.884;2024-01-27T03:39:54;205.40;2252.80
55329;DHT22;41205;44.264;19.884;2024-01-27T03:45:13;205.40;2252.80
55329;DHT22;41205;44.264;19.884;2024-01-27T03:47:39;205.40;2252.80
55329;DHT22;41205;44.264;19.884;2024-01-27T03:52:34;205.20;2252.80
55329;DHT22;41205;44.264;19.884;2024-01-27T03:55:01;205.10;2252.80
55329;DHT22;41205;44.264;19.884;2024-01-27T03:57:27;205.10;2252.80
55329;DHT22;41205;44.264;19.884;2024-01-27T03:59:52;205.00;2252.80
55329;DHT22;41205;44.264;19.884;2024-01-27T04:02:18;205.00;2252.80
55329;DHT22;41205;44.264;19.884;2024-01-27T04:04:44;205.00;2252.80
55329;DHT22;41205;44.264;19.884;2024-01-27T04:09:42;205.00;2252.80
55329;DHT22;41205;44.264;19.884;2024-01-27T04:20:21;205.10;2252.80
55329;DHT22;41205;44.264;19.884;2024-01-27T04:22:47;205.20;2252.80
55329;DHT22;41205;44.264;19.884;2024-01-27T04:27:42;205.10;2252.80
55329;DHT22;41205;44.264;19.884;2024-01-27T04:30:10;205.10;2252.80
55329;DHT22;41205;44.264;19.884;2024-01-27T04:32:36;205.10;2252.80
55329;DHT22;41205;44.264;19.884;2024-01-27T04:35:02;205.20;2252.80
55329;DHT22;41205;44.264;19.884;2024-01-27T04:37:28;205.10;2252.80
55329;DHT22;41205;44.264;19.884;2024-01-27T04:39:54;205.20;2252.80
55329;DHT22;41205;44.264;19.884;2024-01-27T04:42:20;205.20;2252.80
55329;DHT22;41205;44.264;19.884;2024-01-27T04:44:46;205.10;2252.80
55329;DHT22;41205;44.264;19.884;2024-01-27T04:47:12;205.20;2252.80
55329;DHT22;41205;44.264;19.884;2024-01-27T04:49:37;205.20;2252.80
55329;DHT22;41205;44.264;19.884;2024-01-27T04:52:03;205.20;2252.80
55329;DHT22;41205;44.264;19.884;2024-01-27T04:54:29;205.20;2252.80
55329;DHT22;41205;44.264;19.884;2024-01-27T04:56:55;205.20;2252.80
55329;DHT22;41205;44.264;19.884;2024-01-27T04:59:21;205.20;2252.80
55329;DHT22;41205;44.264;19.884;2024-01-27T05:01:47;205.20;2252.80
55329;DHT22;41205;44.264;19.884;2024-01-27T05:04:13;205.40;2252.80
55329;DHT22;41205;44.264;19.884;2024-01-27T05:06:43;205.10;2252.80
55329;DHT22;41205;44.264;19.884;2024-01-27T05:09:09;205.10;2252.80
55329;DHT22;41205;44.264;19.884;2024-01-27T05:11:34;205.10;2252.80
55329;DHT22;41205;44.264;19.884;2024-01-27T05:14:06;205.10;2252.80
55329;DHT22;41205;44.264;19.884;2024-01-27T05:16:32;205.00;2252.80
55329;DHT22;41205;44.264;19.884;2024-01-27T05:18:59;204.90;2252.80
55329;DHT22;41205;44.264;19.884;2024-01-27T05:21:24;204.90;2252.80
55329;DHT22;41205;44.264;19.884;2024-01-27T05:23:50;204.80;2252.80
55329;DHT22;41205;44.264;19.884;2024-01-27T05:26:16;180.10;2252.80
55329;DHT22;41205;44.264;19.884;2024-01-27T05:28:42;180.10;2252.80
55329;DHT22;41205;44.264;19.884;2024-01-27T05:31:07;180.10;2252.80
55329;DHT22;41205;44.264;19.884;2024-01-27T05:33:36;180.10;2252.80
55329;DHT22;41205;44.264;19.884;2024-01-27T05:36:02;180.10;2252.80
55329;DHT22;41205;44.264;19.884;2024-01-27T05:38:28;180.10;2252.80
55329;DHT22;41205;44.264;19.884;2024-01-27T05:43:22;180.10;2252.80
55329;DHT22;41205;44.264;19.884;2024-01-27T05:45:48;180.10;2252.80
55329;DHT22;41205;44.264;19.884;2024-01-27T05:48:14;180.00;2252.80
55329;DHT22;41205;44.264;19.884;2024-01-27T05:50:42;180.00;2252.80
55329;DHT22;41205;44.264;19.884;2024-01-27T05:56:15;179.80;2252.80
55329;DHT22;41205;44.264;19.884;2024-01-27T05:58:42;179.80;2252.80
55329;DHT22;41205;44.264;19.884;2024-01-27T06:01:07;179.80;2252.80
55329;DHT22;41205;44.264;19.884;2024-01-27T06:03:35;179.70;2252.80
55329;DHT22;41205;44.264;19.884;2024-01-27T06:06:01;179.70;2252.80
55329;DHT22;41205;44.264;19.884;2024-01-27T06:08:27;179.70;2252.80
55329;DHT22;41205;44.264;19.884;2024-01-27T06:10:53;179.70;2252.80
55329;DHT22;41205;44.264;19.884;2024-01-27T06:13:18;179.70;2252.80
55329;DHT22;41205;44.264;19.884;2024-01-27T06:15:47;179.70;2252.80
55329;DHT22;41205;44.264;19.884;2024-01-27T06:18:14;179.60;2252.80
55329;DHT22;41205;44.264;19.884;2024-01-27T06:20:40;179.60;2252.80
55329;DHT22;41205;44.264;19.884;2024-01-27T06:25:37;179.70;2252.80
55329;DHT22;41205;44.264;19.884;2024-01-27T06:28:02;179.70;2252.80
55329;DHT22;41205;44.264;19.884;2024-01-27T06:30:28;179.70;2252.80
55329;DHT22;41205;44.264;19.884;2024-01-27T06:35:19;179.70;2252.80
55329;DHT22;41205;44.264;19.884;2024-01-27T06:37:45;179.70;2252.80
55329;DHT22;41205;44.264;19.884;2024-01-27T06:40:11;204.80;2252.80
55329;DHT22;41205;44.264;19.884;2024-01-27T06:42:37;179.70;2252.80
55329;DHT22;41205;44.264;19.884;2024-01-27T06:48:20;179.70;2252.80
55329;DHT22;41205;44.264;19.884;2024-01-27T06:50:46;179.80;2252.80
55329;DHT22;41205;44.264;19.884;2024-01-27T06:53:11;179.70;2252.80
55329;DHT22;41205;44.264;19.884;2024-01-27T06:55:37;179.70;2252.80
55329;DHT22;41205;44.264;19.884;2024-01-27T06:58:03;179.80;2252.80
55329;DHT22;41205;44.264;19.884;2024-01-27T07:00:29;179.80;2252.80
55329;DHT22;41205;44.264;19.884;2024-01-27T07:02:57;179.80;2252.80
55329;DHT22;41205;44.264;19.884;2024-01-27T07:05:23;179.90;2252.80
55329;DHT22;41205;44.264;19.884;2024-01-27T07:07:49;179.80;2252.80
55329;DHT22;41205;44.264;19.884;2024-01-27T07:10:15;179.90;2252.80
55329;DHT22;41205;44.264;19.884;2024-01-27T07:12:41;179.90;2252.80
55329;DHT22;41205;44.264;19.884;2024-01-27T07:15:07;180.00;2252.80
55329;DHT22;41205;44.264;19.884;2024-01-27T07:17:34;180.10;2252.80
55329;DHT22;41205;44.264;19.884;2024-01-27T07:20:01;180.10;2252.80
55329;DHT22;41205;44.264;19.884;2024-01-27T07:22:26;204.80;2252.80
55329;DHT22;41205;44.264;19.884;2024-01-27T07:24:52;205.00;2252.80
55329;DHT22;41205;44.264;19.884;2024-01-27T07:27:18;205.00;2252.80
55329;DHT22;41205;44.264;19.884;2024-01-27T07:29:44;205.30;2252.80
55329;DHT22;41205;44.264;19.884;2024-01-27T07:32:10;205.50;2252.80
55329;DHT22;41205;44.264;19.884;2024-01-27T07:34:42;205.50;2252.80
55329;DHT22;41205;44.264;19.884;2024-01-27T07:37:08;205.60;2252.80
55329;DHT22;41205;44.264;19.884;2024-01-27T07:39:34;230.40;2252.80
55329;DHT22;41205;44.264;19.884;2024-01-27T07:42:00;230.40;2252.80
55329;DHT22;41205;44.264;19.884;2024-01-27T07:44:26;230.60;2252.80
55329;DHT22;41205;44.264;19.884;2024-01-27T07:46:52;230.80;2252.80
55329;DHT22;41205;44.264;19.884;2024-01-27T07:51:53;231.00;2252.80
55329;DHT22;41205;44.264;19.884;2024-01-27T07:54:19;230.70;2252.80
55329;DHT22;41205;44.264;19.884;2024-01-27T07:56:45;230.70;2252.80
55329;DHT22;41205;44.264;19.884;2024-01-27T07:59:13;230.60;2252.80
55329;DHT22;41205;44.264;19.884;2024-01-27T08:01:42;230.90;2252.80
55329;DHT22;41205;44.264;19.884;2024-01-27T08:04:08;231.10;2252.80
55329;DHT22;41205;44.264;19.884;2024-01-27T08:06:45;281.80;2278.40
55329;DHT22;41205;44.264;19.884;2024-01-27T08:09:11;256.90;2252.80
55329;DHT22;41205;44.264;19.884;2024-01-27T08:11:36;256.80;2252.80
55329;DHT22;41205;44.264;19.884;2024-01-27T08:14:03;282.20;2227.20
55329;DHT22;41205;44.264;19.884;2024-01-27T08:16:28;307.30;2176.00
55329;DHT22;41205;44.264;19.884;2024-01-27T08:18:54;307.70;2124.80
55329;DHT22;41205;44.264;19.884;2024-01-27T08:21:20;282.00;2201.60
55329;DHT22;41205;44.264;19.884;2024-01-27T08:23:45;307.90;2099.20
55329;DHT22;41205;44.264;19.884;2024-01-27T08:26:11;307.40;2150.40
55329;DHT22;41205;44.264;19.884;2024-01-27T08:28:37;332.80;2073.60
55329;DHT22;41205;44.264;19.884;2024-01-27T08:31:03;308.00;2073.60
55329;DHT22;41205;44.264;19.884;2024-01-27T08:33:30;332.90;2073.60
55329;DHT22;41205;44.264;19.884;2024-01-27T08:35:56;333.70;1996.80
55329;DHT22;41205;44.264;19.884;2024-01-27T08:38:22;333.00;2048.00
55329;DHT22;41205;44.264;19.884;2024-01-27T08:40:48;358.50;1945.60
55329;DHT22;41205;44.264;19.884;2024-01-27T08:43:13;359.10;1868.80
55329;DHT22;41205;44.264;19.884;2024-01-27T08:45:39;384.40;1817.60
55329;DHT22;41205;44.264;19.884;2024-01-27T08:48:06;409.70;1792.00
55329;DHT22;41205;44.264;19.884;2024-01-27T08:50:32;410.10;1740.80
55329;DHT22;41205;44.264;19.884;2024-01-27T08:52:58;410.00;1740.80
55329;DHT22;41205;44.264;19.884;2024-01-27T08:55:24;410.20;1715.20
55329;DHT22;41205;44.264;19.884;2024-01-27T08:57:52;384.70;1715.20
55329;DHT22;41205;44.264;19.884;2024-01-27T09:00:18;409.60;1715.20
55329;DHT22;41205;44.264;19.884;2024-01-27T09:02:44;410.10;1689.60
55329;DHT22;41205;44.264;19.884;2024-01-27T09:05:10;410.30;1664.00
55329;DHT22;41205;44.264;19.884;2024-01-27T09:07:36;435.60;1638.40
55329;DHT22;41205;44.264;19.884;2024-01-27T09:10:02;436.00;1587.20
55329;DHT22;41205;44.264;19.884;2024-01-27T09:12:28;435.60;1612.80
55329;DHT22;41205;44.264;19.884;2024-01-27T09:14:54;435.90;1587.20
55329;DHT22;41205;44.264;19.884;2024-01-27T09:17:20;436.10;1587.20
55329;DHT22;41205;44.264;19.884;2024-01-27T09:19:47;436.10;1561.60
55329;DHT22;41205;44.264;19.884;2024-01-27T09:22:12;435.70;1587.20
55329;DHT22;41205;44.264;19.884;2024-01-27T09:24:39;435.60;1587.20
55329;DHT22;41205;44.264;19.884;2024-01-27T09:27:05;435.50;1561.60
55329;DHT22;41205;44.264;19.884;2024-01-27T09:29:31;435.80;1510.40
55329;DHT22;41205;44.264;19.884;2024-01-27T09:31:57;461.00;1536.00
55329;DHT22;41205;44.264;19.884;2024-01-27T09:34:22;435.90;1510.40
55329;DHT22;41205;44.264;19.884;2024-01-27T09:36:48;460.80;1561.60
55329;DHT22;41205;44.264;19.884;2024-01-27T09:39:14;435.60;1561.60
55329;DHT22;41205;44.264;19.884;2024-01-27T09:41:40;410.20;1587.20
55329;DHT22;41205;44.264;19.884;2024-01-27T09:44:06;410.30;1612.80
55329;DHT22;41205;44.264;19.884;2024-01-27T09:46:32;384.60;1638.40
55329;DHT22;41205;44.264;19.884;2024-01-27T09:48:58;384.50;1612.80
55329;DHT22;41205;44.264;19.884;2024-01-27T09:51:25;384.20;1638.40
55329;DHT22;41205;44.264;19.884;2024-01-27T09:53:52;359.00;1664.00
55329;DHT22;41205;44.264;19.884;2024-01-27T09:56:18;358.80;1664.00
55329;DHT22;41205;44.264;19.884;2024-01-27T09:58:45;359.10;1689.60
55329;DHT22;41205;44.264;19.884;2024-01-27T10:01:11;358.80;1715.20
55329;DHT22;41205;44.264;19.884;2024-01-27T10:03:40;358.90;1689.60
55329;DHT22;41205;44.264;19.884;2024-01-27T10:06:10;358.60;1715.20
55329;DHT22;41205;44.264;19.884;2024-01-27T10:08:36;333.70;1766.40
55329;DHT22;41205;44.264;19.884;2024-01-27T10:11:09;333.20;1766.40
55329;DHT22;41205;44.264;19.884;2024-01-27T10:13:36;358.50;1715.20
55329;DHT22;41205;44.264;19.884;2024-01-27T10:16:03;359.10;1689.60
55329;DHT22;41205;44.264;19.884;2024-01-27T10:18:32;384.20;1664.00
55329;DHT22;41205;44.264;19.884;2024-01-27T10:20:59;384.10;1638.40
55329;DHT22;41205;44.264;19.884;2024-01-27T10:23:25;359.20;1664.00
55329;DHT22;41205;44.264;19.884;2024-01-27T10:25:51;358.50;1689.60
55329;DHT22;41205;44.264;19.884;2024-01-27T10:28:17;333.20;1740.80
55329;DHT22;41205;44.264;19.884;2024-01-27T10:30:44;307.80;1766.40
55329;DHT22;41205;44.264;19.884;2024-01-27T10:33:11;307.80;1766.40
55329;DHT22;41205;44.264;19.884;2024-01-27T10:35:39;307.80;1792.00
55329;DHT22;41205;44.264;19.884;2024-01-27T10:38:05;307.70;1792.00
55329;DHT22;41205;44.264;19.884;2024-01-27T10:40:31;307.40;1817.60
55329;DHT22;41205;44.264;19.884;2024-01-27T10:43:17;307.20;1843.20
55329;DHT22;41205;44.264;19.884;2024-01-27T10:45:43;282.30;1817.60
55329;DHT22;41205;44.264;19.884;2024-01-27T10:48:10;282.10;1843.20
55329;DHT22;41205;44.264;19.884;2024-01-27T10:50:39;282.10;1843.20
55329;DHT22;41205;44.264;19.884;2024-01-27T10:53:09;282.20;1868.80
55329;DHT22;41205;44.264;19.884;2024-01-27T10:55:38;282.00;1868.80
55329;DHT22;41205;44.264;19.884;2024-01-27T10:58:05;282.10;1843.20
55329;DHT22;41205;44.264;19.884;2024-01-27T11:00:32;281.90;1843.20
55329;DHT22;41205;44.264;19.884;2024-01-27T11:03:01;281.80;1868.80
55329;DHT22;41205;44.264;19.884;2024-01-27T11:05:28;256.90;1817.60
55329;DHT22;41205;44.264;19.884;2024-01-27T11:07:55;281.60;1843.20
55329;DHT22;41205;44.264;19.884;2024-01-27T11:10:22;256.90;1843.20
55329;DHT22;41205;44.264;19.884;2024-01-27T11:12:50;256.70;1843.20
55329;DHT22;41205;44.264;19.884;2024-01-27T11:15:16;256.70;1868.80
55329;DHT22;41205;44.264;19.884;2024-01-27T11:17:42;256.60;1868.80
55329;DHT22;41205;44.264;19.884;2024-01-27T11:20:09;256.80;1868.80
55329;DHT22;41205;44.264;19.884;2024-01-27T11:22:41;281.60;1894.40
55329;DHT22;41205;44.264;19.884;2024-01-27T11:27:40;256.90;1843.20
55329;DHT22;41205;44.264;19.884;2024-01-27T11:30:23;256.70;1843.20
55329;DHT22;41205;44.264;19.884;2024-01-27T11:32:49;256.50;1868.80
55329;DHT22;41205;44.264;19.884;2024-01-27T11:35:17;256.70;1843.20
55329;DHT22;41205;44.264;19.884;2024-01-27T11:37:43;256.60;1843.20
55329;DHT22;41205;44.264;19.884;2024-01-27T11:40:09;256.70;1817.60
55329;DHT22;41205;44.264;19.884;2024-01-27T11:42:35;256.80;1843.20
55329;DHT22;41205;44.264;19.884;2024-01-27T11:45:01;256.70;1792.00
55329;DHT22;41205;44.264;19.884;2024-01-27T11:47:27;256.80;1792.00
55329;DHT22;41205;44.264;19.884;2024-01-27T11:49:54;256.80;1792.00
55329;DHT22;41205;44.264;19.884;2024-01-27T11:52:22;256.80;1792.00
55329;DHT22;41205;44.264;19.884;2024-01-27T11:54:59;256.90;1817.60
55329;DHT22;41205;44.264;19.884;2024-01-27T11:57:26;256.90;1817.60
55329;DHT22;41205;44.264;19.884;2024-01-27T11:59:52;281.80;1843.20
55329;DHT22;41205;44.264;19.884;2024-01-27T12:02:19;281.80;1843.20
55329;DHT22;41205;44.264;19.884;2024-01-27T12:04:45;281.80;1843.20
55329;DHT22;41205;44.264;19.884;2024-01-27T12:07:10;256.90;1792.00
55329;DHT22;41205;44.264;19.884;2024-01-27T12:09:37;256.90;1817.60
55329;DHT22;41205;44.264;19.884;2024-01-27T12:12:04;256.80;1766.40
55329;DHT22;41205;44.264;19.884;2024-01-27T12:14:46;256.80;1740.80
55329;DHT22;41205;44.264;19.884;2024-01-27T12:17:12;256.60;1740.80
55329;DHT22;41205;44.264;19.884;2024-01-27T12:19:38;256.50;1766.40
55329;DHT22;41205;44.264;19.884;2024-01-27T12:22:05;256.60;1766.40
55329;DHT22;41205;44.264;19.884;2024-01-27T12:24:48;256.60;1740.80
55329;DHT22;41205;44.264;19.884;2024-01-27T12:27:16;256.60;1740.80
55329;DHT22;41205;44.264;19.884;2024-01-27T12:29:42;256.70;1740.80
55329;DHT22;41205;44.264;19.884;2024-01-27T12:32:08;256.50;1766.40
55329;DHT22;41205;44.264;19.884;2024-01-27T12:34:40;256.50;1766.40
55329;DHT22;41205;44.264;19.884;2024-01-27T12:37:08;256.40;1792.00
55329;DHT22;41205;44.264;19.884;2024-01-27T12:39:34;256.50;1792.00
55329;DHT22;41205;44.264;19.884;2024-01-27T12:42:00;256.40;1817.60
55329;DHT22;41205;44.264;19.884;2024-01-27T12:44:25;256.50;1817.60
55329;DHT22;41205;44.264;19.884;2024-01-27T12:46:51;256.70;1817.60
55329;DHT22;41205;44.264;19.884;2024-01-27T12:49:17;256.70;1817.60
55329;DHT22;41205;44.264;19.884;2024-01-27T12:51:43;281.60;1843.20
55329;DHT22;41205;44.264;19.884;2024-01-27T12:54:09;256.50;1817.60
55329;DHT22;41205;44.264;19.884;2024-01-27T12:56:35;281.60;1843.20
55329;DHT22;41205;44.264;19.884;2024-01-27T12:59:01;256.90;1817.60
55329;DHT22;41205;44.264;19.884;2024-01-27T13:01:27;281.70;1843.20
55329;DHT22;41205;44.264;19.884;2024-01-27T13:03:53;281.80;1843.20
55329;DHT22;41205;44.264;19.884;2024-01-27T13:06:19;281.90;1817.60
55329;DHT22;41205;44.264;19.884;2024-01-27T13:08:46;281.90;1843.20
55329;DHT22;41205;44.264;19.884;2024-01-27T13:11:12;281.70;1843.20
55329;DHT22;41205;44.264;19.884;2024-01-27T13:13:40;281.90;1843.20
55329;DHT22;41205;44.264;19.884;2024-01-27T13:16:06;281.70;1843.20
55329;DHT22;41205;44.264;19.884;2024-01-27T13:18:32;281.70;1843.20
55329;DHT22;41205;44.264;19.884;2024-01-27T13:20:57;281.80;1843.20
55329;DHT22;41205;44.264;19.884;2024-01-27T13:23:23;281.80;1843.20
55329;DHT22;41205;44.264;19.884;2024-01-27T13:25:49;281.70;1843.20
55329;DHT22;41205;44.264;19.884;2024-01-27T13:28:15;281.80;1843.20
55329;DHT22;41205;44.264;19.884;2024-01-27T13:30:41;281.90;1843.20
55329;DHT22;41205;44.264;19.884;2024-01-27T13:33:07;281.80;1843.20
55329;DHT22;41205;44.264;19.884;2024-01-27T13:35:33;281.80;1843.20
55329;DHT22;41205;44.264;19.884;2024-01-27T13:37:59;282.10;1843.20
55329;DHT22;41205;44.264;19.884;2024-01-27T13:40:25;282.30;1843.20
55329;DHT22;41205;44.264;19.884;2024-01-27T13:42:51;282.00;1843.20
55329;DHT22;41205;44.264;19.884;2024-01-27T13:45:18;281.90;1817.60
55329;DHT22;41205;44.264;19.884;2024-01-27T13:47:44;281.90;1817.60
55329;DHT22;41205;44.264;19.884;2024-01-27T13:50:11;281.80;1817.60
55329;DHT22;41205;44.264;19.884;2024-01-27T13:52:37;281.60;1817.60
55329;DHT22;41205;44.264;19.884;2024-01-27T13:55:03;256.70;1817.60
55329;DHT22;41205;44.264;19.884;2024-01-27T13:57:29;256.70;1843.20
55329;DHT22;41205;44.264;19.884;2024-01-27T13:59:55;256.50;1868.80
55329;DHT22;41205;44.264;19.884;2024-01-27T14:02:22;256.50;1868.80
55329;DHT22;41205;44.264;19.884;2024-01-27T14:04:49;256.50;1894.40
55329;DHT22;41205;44.264;19.884;2024-01-27T14:07:14;256.60;1868.80
55329;DHT22;41205;44.264;19.884;2024-01-27T14:09:40;256.50;1868.80
55329;DHT22;41205;44.264;19.884;2024-01-27T14:12:06;256.30;1868.80
55329;DHT22;41205;44.264;19.884;2024-01-27T14:14:32;256.30;1868.80
55329;DHT22;41205;44.264;19.884;2024-01-27T14:16:58;256.60;1868.80
55329;DHT22;41205;44.264;19.884;2024-01-27T14:19:24;256.50;1868.80
55329;DHT22;41205;44.264;19.884;2024-01-27T14:21:49;256.60;1843.20
55329;DHT22;41205;44.264;19.884;2024-01-27T14:24:15;256.60;1868.80
55329;DHT22;41205;44.264;19.884;2024-01-27T14:26:41;256.50;1868.80
55329;DHT22;41205;44.264;19.884;2024-01-27T14:29:07;256.50;1868.80
55329;DHT22;41205;44.264;19.884;2024-01-27T14:31:32;256.50;1868.80
55329;DHT22;41205;44.264;19.884;2024-01-27T14:33:58;256.50;1843.20
55329;DHT22;41205;44.264;19.884;2024-01-27T14:36:24;256.40;1868.80
55329;DHT22;41205;44.264;19.884;2024-01-27T14:38:51;256.30;1868.80
55329;DHT22;41205;44.264;19.884;2024-01-27T14:41:17;256.30;1868.80
55329;DHT22;41205;44.264;19.884;2024-01-27T14:43:43;256.30;1868.80
55329;DHT22;41205;44.264;19.884;2024-01-27T14:46:08;256.30;1868.80
55329;DHT22;41205;44.264;19.884;2024-01-27T14:48:35;256.30;1894.40
55329;DHT22;41205;44.264;19.884;2024-01-27T14:51:01;256.30;1920.00
55329;DHT22;41205;44.264;19.884;2024-01-27T14:53:29;256.20;1920.00
55329;DHT22;41205;44.264;19.884;2024-01-27T14:55:56;256.20;1920.00
55329;DHT22;41205;44.264;19.884;2024-01-27T14:58:22;231.30;1971.20
55329;DHT22;41205;44.264;19.884;2024-01-27T15:00:48;230.90;1971.20
55329;DHT22;41205;44.264;19.884;2024-01-27T15:03:22;231.20;1996.80
55329;DHT22;41205;44.264;19.884;2024-01-27T15:05:49;231.10;1971.20
55329;DHT22;41205;44.264;19.884;2024-01-27T15:08:19;231.20;1996.80
55329;DHT22;41205;44.264;19.884;2024-01-27T15:10:45;231.20;1996.80
55329;DHT22;41205;44.264;19.884;2024-01-27T15:13:14;231.10;1971.20
55329;DHT22;41205;44.264;19.884;2024-01-27T15:15:42;231.10;1971.20
55329;DHT22;41205;44.264;19.884;2024-01-27T15:18:08;231.10;1996.80
55329;DHT22;41205;44.264;19.884;2024-01-27T15:20:35;231.10;1996.80
55329;DHT22;41205;44.264;19.884;2024-01-27T15:23:02;231.00;1996.80
55329;DHT22;41205;44.264;19.884;2024-01-27T15:25:27;231.10;1971.20
55329;DHT22;41205;44.264;19.884;2024-01-27T15:27:53;230.90;1996.80
55329;DHT22;41205;44.264;19.884;2024-01-27T15:30:19;230.90;1996.80
55329;DHT22;41205;44.264;19.884;2024-01-27T15:32:46;230.80;2022.40
55329;DHT22;41205;44.264;19.884;2024-01-27T15:35:12;230.80;1996.80
55329;DHT22;41205;44.264;19.884;2024-01-27T15:37:38;230.70;1996.80
55329;DHT22;41205;44.264;19.884;2024-01-27T15:40:05;230.60;2022.40
55329;DHT22;41205;44.264;19.884;2024-01-27T15:42:32;230.60;2022.40
55329;DHT22;41205;44.264;19.884;2024-01-27T15:44:59;230.50;2022.40
55329;DHT22;41205;44.264;19.884;2024-01-27T15:47:26;205.70;2048.00